This is the latest recevied weather packets stored in our database for station/object ED1ZAI-13. If no packets are shown the sender has not sent any weather packets the latest 10 day(s).
| Time | Temp. | Humidity | Pressure | Rain* | Wind** | Luminosity | Snow |
|---|---|---|---|---|---|---|---|
| 1777827667 | 15.56° C | 63% | 1010.1 hPa | 0 mm | - | - | - |
| 1777827068 | 16.11° C | 66% | 1010.2 hPa | 0 mm | - | - | - |
| 1777826467 | 16.11° C | 66% | 1010.2 hPa | 0 mm | - | - | - |
| 1777825867 | 15.56° C | 68% | 1010.4 hPa | 0 mm | - | - | - |
| 1777825267 | 16.11° C | 67% | 1010.5 hPa | 2.03 mm | - | - | - |
| 1777824666 | 15.56° C | 73% | 1010.6 hPa | 2.03 mm | - | - | - |
| 1777824066 | 13.33° C | 76% | 1010.9 hPa | 2.03 mm | - | - | - |
| 1777823770 | 12.22° C | 80% | 1011 hPa | 2.03 mm | - | - | - |
| 1777823169 | 11.67° C | 80% | 1011.3 hPa | 2.03 mm | - | - | - |
| 1777822569 | 11.11° C | 79% | 1011.3 hPa | 2.03 mm | - | - | - |
| 1777821969 | 12.78° C | 74% | 1011.1 hPa | 0.51 mm | - | - | - |
| 1777821371 | 14.44° C | 74% | 1010.7 hPa | 0.51 mm | - | - | - |
| 1777820770 | 14.44° C | 75% | 1010.7 hPa | 0.51 mm | - | - | - |
| 1777820170 | 14.44° C | 74% | 1010.4 hPa | 0.51 mm | - | - | - |
| 1777819570 | 14.44° C | 74% | 1010.5 hPa | 0.51 mm | - | - | - |
| 1777818969 | 14.44° C | 73% | 1010.7 hPa | 0.51 mm | - | - | - |
| 1777818369 | 14.44° C | 74% | 1011 hPa | 0.51 mm | - | - | - |
| 1777817769 | 12.78° C | 77% | 1011.3 hPa | 0.51 mm | - | - | - |
| 1777817170 | 13.33° C | 75% | 1011.4 hPa | 0 mm | - | - | - |
| 1777816570 | 16.11° C | 62% | 1010.9 hPa | 0 mm | - | - | - |
| 1777815970 | 18.89° C | 56% | 1010.7 hPa | 0 mm | - | - | - |
| 1777815370 | 19.44° C | 52% | 1010.8 hPa | 0 mm | - | - | - |
| 1777814769 | 19.44° C | 50% | 1011 hPa | 0 mm | - | - | - |
| 1777814169 | 21.11° C | 47% | 1011.1 hPa | 0 mm | - | - | - |
| 1777813570 | 20.56° C | 52% | 1011.3 hPa | 0 mm | - | - | - |
* Rain latest hour (hover to see other rain measurements)
** Current wind speed in m/s (hover to see current wind gust speed)